sensor_id;sensor_type;location;lat;lon;timestamp;pressure;altitude;pressure_sealevel;temperature;humidity
33191;BME280;19554;42.652;23.364;2022-10-16T00:00:34;95257.72;;;12.15;61.26
33191;BME280;19554;42.652;23.364;2022-10-16T00:03:00;95203.97;;;11.72;61.24
33191;BME280;19554;42.652;23.364;2022-10-16T00:05:25;95273.22;;;12.13;60.94
33191;BME280;19554;42.652;23.364;2022-10-16T00:07:50;95271.66;;;12.12;60.54
33191;BME280;19554;42.652;23.364;2022-10-16T00:10:16;95200.81;;;11.65;60.66
33191;BME280;19554;42.652;23.364;2022-10-16T00:12:41;95224.81;;;11.75;60.06
33191;BME280;19554;42.652;23.364;2022-10-16T00:15:07;95228.56;;;11.74;59.52
33191;BME280;19554;42.652;23.364;2022-10-16T00:17:33;95256.88;;;11.85;59.82
33191;BME280;19554;42.652;23.364;2022-10-16T00:19:58;95159.44;;;11.18;60.16
33191;BME280;19554;42.652;23.364;2022-10-16T00:22:23;95239.91;;;11.60;60.12
33191;BME280;19554;42.652;23.364;2022-10-16T00:24:49;95281.75;;;11.80;59.46
33191;BME280;19554;42.652;23.364;2022-10-16T00:27:15;95282.84;;;11.74;59.65
33191;BME280;19554;42.652;23.364;2022-10-16T00:29:41;95182.53;;;11.03;59.68
33191;BME280;19554;42.652;23.364;2022-10-16T00:32:07;95273.88;;;11.55;59.75
33191;BME280;19554;42.652;23.364;2022-10-16T00:34:32;95175.16;;;10.85;59.86
33191;BME280;19554;42.652;23.364;2022-10-16T00:36:57;95257.16;;;11.34;60.23
33191;BME280;19554;42.652;23.364;2022-10-16T00:39:23;95289.19;;;11.44;59.70
33191;BME280;19554;42.652;23.364;2022-10-16T00:41:49;95280.13;;;11.35;59.52
33191;BME280;19554;42.652;23.364;2022-10-16T00:47:14;95255.16;;;11.10;60.46
33191;BME280;19554;42.652;23.364;2022-10-16T00:49:41;95294.03;;;11.37;59.96
33191;BME280;19554;42.652;23.364;2022-10-16T00:52:06;95221.34;;;10.85;60.18
33191;BME280;19554;42.652;23.364;2022-10-16T00:54:33;95246.38;;;11.00;61.28
33191;BME280;19554;42.652;23.364;2022-10-16T00:57:04;95293.53;;;11.30;61.56
33191;BME280;19554;42.652;23.364;2022-10-16T00:59:33;95297.28;;;11.29;61.02
33191;BME280;19554;42.652;23.364;2022-10-16T01:02:00;95259.72;;;11.05;60.96
33191;BME280;19554;42.652;23.364;2022-10-16T01:04:26;95304.22;;;11.30;61.56
33191;BME280;19554;42.652;23.364;2022-10-16T01:07:16;95302.38;;;11.25;61.70
33191;BME280;19554;42.652;23.364;2022-10-16T01:09:55;95307.44;;;11.27;61.31
33191;BME280;19554;42.652;23.364;2022-10-16T01:12:54;95311.16;;;11.31;61.43
33191;BME280;19554;42.652;23.364;2022-10-16T01:15:31;95315.47;;;11.32;61.81
33191;BME280;19554;42.652;23.364;2022-10-16T01:18:04;95304.47;;;11.33;62.72
33191;BME280;19554;42.652;23.364;2022-10-16T01:20:56;95299.38;;;11.37;62.53
33191;BME280;19554;42.652;23.364;2022-10-16T01:28:55;95193.91;;;10.70;59.75
33191;BME280;19554;42.652;23.364;2022-10-16T01:31:25;95288.50;;;11.23;59.70
33191;BME280;19554;42.652;23.364;2022-10-16T01:34:20;95279.16;;;11.21;59.63
33191;BME280;19554;42.652;23.364;2022-10-16T01:36:52;95221.91;;;10.77;60.41
33191;BME280;19554;42.652;23.364;2022-10-16T01:39:23;95282.69;;;11.06;61.21
33191;BME280;19554;42.652;23.364;2022-10-16T01:42:14;95285.66;;;11.04;60.46
33191;BME280;19554;42.652;23.364;2022-10-16T01:44:43;95250.47;;;10.82;61.13
33191;BME280;19554;42.652;23.364;2022-10-16T01:47:12;95288.88;;;10.96;62.04
33191;BME280;19554;42.652;23.364;2022-10-16T01:49:39;95199.38;;;10.34;61.47
33191;BME280;19554;42.652;23.364;2022-10-16T01:52:10;95296.66;;;10.87;61.55
33191;BME280;19554;42.652;23.364;2022-10-16T01:54:41;95254.81;;;10.57;61.43
33191;BME280;19554;42.652;23.364;2022-10-16T01:57:07;95294.53;;;10.79;62.00
33191;BME280;19554;42.652;23.364;2022-10-16T01:59:38;95292.13;;;10.78;61.95
33191;BME280;19554;42.652;23.364;2022-10-16T02:02:07;95298.56;;;10.72;62.77
33191;BME280;19554;42.652;23.364;2022-10-16T02:04:39;95295.34;;;10.75;62.83
33191;BME280;19554;42.652;23.364;2022-10-16T02:07:06;95298.56;;;10.72;63.12
33191;BME280;19554;42.652;23.364;2022-10-16T02:09:33;95307.94;;;10.64;63.26
33191;BME280;19554;42.652;23.364;2022-10-16T02:12:03;95302.88;;;10.57;63.09
33191;BME280;19554;42.652;23.364;2022-10-16T02:14:32;95314.06;;;10.54;63.08
33191;BME280;19554;42.652;23.364;2022-10-16T02:16:58;95223.94;;;9.90;63.50
33191;BME280;19554;42.652;23.364;2022-10-16T02:19:23;95313.56;;;10.27;64.11
33191;BME280;19554;42.652;23.364;2022-10-16T02:22:03;95319.16;;;10.20;63.61
33191;BME280;19554;42.652;23.364;2022-10-16T02:24:33;95315.66;;;10.14;64.34
33191;BME280;19554;42.652;23.364;2022-10-16T02:29:39;95314.63;;;10.05;64.82
33191;BME280;19554;42.652;23.364;2022-10-16T02:32:07;95316.47;;;10.05;64.36
33191;BME280;19554;42.652;23.364;2022-10-16T02:34:34;95327.66;;;10.12;63.33
33191;BME280;19554;42.652;23.364;2022-10-16T02:37:01;95324.47;;;10.20;63.17
33191;BME280;19554;42.652;23.364;2022-10-16T02:39:29;95329.59;;;10.27;62.49
33191;BME280;19554;42.652;23.364;2022-10-16T02:41:55;95324.22;;;10.32;61.34
33191;BME280;19554;42.652;23.364;2022-10-16T02:44:20;95325.56;;;10.34;61.41
33191;BME280;19554;42.652;23.364;2022-10-16T02:46:46;95337.03;;;10.35;60.56
33191;BME280;19554;42.652;23.364;2022-10-16T02:49:11;95335.16;;;10.35;60.83
33191;BME280;19554;42.652;23.364;2022-10-16T02:51:37;95313.53;;;10.21;60.13
33191;BME280;19554;42.652;23.364;2022-10-16T02:54:02;95237.81;;;9.71;60.37
33191;BME280;19554;42.652;23.364;2022-10-16T02:56:28;95338.66;;;10.31;60.56
33191;BME280;19554;42.652;23.364;2022-10-16T02:58:55;95307.41;;;10.06;61.80
33191;BME280;19554;42.652;23.364;2022-10-16T03:01:21;95354.13;;;10.29;61.91
33191;BME280;19554;42.652;23.364;2022-10-16T03:03:46;95345.06;;;10.30;61.48
33191;BME280;19554;42.652;23.364;2022-10-16T03:06:11;95345.06;;;10.30;61.45
33191;BME280;19554;42.652;23.364;2022-10-16T03:08:37;95261.53;;;9.73;61.50
33191;BME280;19554;42.652;23.364;2022-10-16T03:11:02;95343.16;;;10.25;61.96
33191;BME280;19554;42.652;23.364;2022-10-16T03:13:28;95343.44;;;10.29;62.63
33191;BME280;19554;42.652;23.364;2022-10-16T03:15:53;95348.25;;;10.27;63.07
33191;BME280;19554;42.652;23.364;2022-10-16T03:18:19;95361.59;;;10.27;64.35
33191;BME280;19554;42.652;23.364;2022-10-16T03:20:44;95355.19;;;10.28;63.80
33191;BME280;19554;42.652;23.364;2022-10-16T03:23:10;95353.06;;;10.30;63.71
33191;BME280;19554;42.652;23.364;2022-10-16T03:25:35;95344.50;;;10.23;61.53
33191;BME280;19554;42.652;23.364;2022-10-16T03:28:00;95346.63;;;10.15;60.24
33191;BME280;19554;42.652;23.364;2022-10-16T03:30:27;95353.28;;;10.18;63.23
33191;BME280;19554;42.652;23.364;2022-10-16T03:32:52;95358.34;;;10.25;62.95
33191;BME280;19554;42.652;23.364;2022-10-16T03:35:21;95368.50;;;10.17;62.96
33191;BME280;19554;42.652;23.364;2022-10-16T03:37:46;95363.69;;;10.25;62.88
33191;BME280;19554;42.652;23.364;2022-10-16T03:40:12;95363.69;;;10.25;62.86
33191;BME280;19554;42.652;23.364;2022-10-16T03:42:37;95313.53;;;9.96;62.55
33191;BME280;19554;42.652;23.364;2022-10-16T03:45:03;95247.38;;;9.52;62.25
33191;BME280;19554;42.652;23.364;2022-10-16T03:47:29;95341.31;;;10.15;62.09
33191;BME280;19554;42.652;23.364;2022-10-16T03:49:54;95345.56;;;10.16;61.98
33191;BME280;19554;42.652;23.364;2022-10-16T03:52:20;95324.47;;;10.10;61.95
33191;BME280;19554;42.652;23.364;2022-10-16T03:54:45;95362.13;;;10.29;61.37
33191;BME280;19554;42.652;23.364;2022-10-16T03:57:11;95357.31;;;10.31;60.93
33191;BME280;19554;42.652;23.364;2022-10-16T03:59:36;95274.63;;;9.85;61.37
33191;BME280;19554;42.652;23.364;2022-10-16T04:02:01;95323.16;;;10.12;61.37
33191;BME280;19554;42.652;23.364;2022-10-16T04:04:27;95239.41;;;9.57;62.02
33191;BME280;19554;42.652;23.364;2022-10-16T04:06:52;95295.94;;;9.85;61.94
33191;BME280;19554;42.652;23.364;2022-10-16T04:09:17;95361.03;;;10.25;61.44
33191;BME280;19554;42.652;23.364;2022-10-16T04:11:43;95356.75;;;10.24;61.30
33191;BME280;19554;42.652;23.364;2022-10-16T04:14:08;95208.72;;;9.29;61.82
33191;BME280;19554;42.652;23.364;2022-10-16T04:16:34;95306.06;;;9.88;61.21
33191;BME280;19554;42.652;23.364;2022-10-16T04:18:59;95226.31;;;9.30;62.47
33191;BME280;19554;42.652;23.364;2022-10-16T04:21:24;95325.81;;;9.97;63.56
33191;BME280;19554;42.652;23.364;2022-10-16T04:23:50;95339.69;;;9.99;62.52
33191;BME280;19554;42.652;23.364;2022-10-16T04:26:15;95358.34;;;10.04;62.40
33191;BME280;19554;42.652;23.364;2022-10-16T04:28:41;95321.50;;;9.70;61.69
33191;BME280;19554;42.652;23.364;2022-10-16T04:31:06;95360.47;;;9.92;61.65
33191;BME280;19554;42.652;23.364;2022-10-16T04:33:32;95321.22;;;9.67;62.85
33191;BME280;19554;42.652;23.364;2022-10-16T04:35:59;95321.75;;;9.64;62.89
33191;BME280;19554;42.652;23.364;2022-10-16T04:38:25;95371.66;;;9.94;60.94
33191;BME280;19554;42.652;23.364;2022-10-16T04:40:51;95376.47;;;9.92;60.67
33191;BME280;19554;42.652;23.364;2022-10-16T04:43:16;95217.41;;;8.89;61.87
33191;BME280;19554;42.652;23.364;2022-10-16T04:45:42;95375.38;;;9.88;61.20
33191;BME280;19554;42.652;23.364;2022-10-16T04:48:07;95372.72;;;9.83;61.01
33191;BME280;19554;42.652;23.364;2022-10-16T04:50:33;95362.00;;;9.62;60.83
33191;BME280;19554;42.652;23.364;2022-10-16T04:52:58;95394.53;;;9.69;60.96
33191;BME280;19554;42.652;23.364;2022-10-16T04:55:24;95361.44;;;9.55;61.43
33191;BME280;19554;42.652;23.364;2022-10-16T04:57:49;95358.25;;;9.63;61.25
33191;BME280;19554;42.652;23.364;2022-10-16T05:00:14;95301.19;;;9.34;61.79
33191;BME280;19554;42.652;23.364;2022-10-16T05:02:40;95335.34;;;9.62;60.28
33191;BME280;19554;42.652;23.364;2022-10-16T05:05:05;95373.28;;;10.00;58.64
33191;BME280;19554;42.652;23.364;2022-10-16T05:07:31;95377.56;;;10.16;58.80
33191;BME280;19554;42.652;23.364;2022-10-16T05:09:56;95400.03;;;10.46;58.09
33191;BME280;19554;42.652;23.364;2022-10-16T05:12:22;95334.09;;;10.16;57.35
33191;BME280;19554;42.652;23.364;2022-10-16T05:14:47;95397.88;;;10.68;57.48
33191;BME280;19554;42.652;23.364;2022-10-16T05:17:12;95402.13;;;10.80;56.76
33191;BME280;19554;42.652;23.364;2022-10-16T05:19:38;95377.06;;;10.71;57.32
33191;BME280;19554;42.652;23.364;2022-10-16T05:22:03;95413.31;;;11.07;57.30
33191;BME280;19554;42.652;23.364;2022-10-16T05:24:29;95326.84;;;10.73;57.25
33191;BME280;19554;42.652;23.364;2022-10-16T05:26:54;95378.00;;;11.21;56.97
33191;BME280;19554;42.652;23.364;2022-10-16T05:29:20;95427.06;;;11.60;56.68
33191;BME280;19554;42.652;23.364;2022-10-16T05:31:45;95383.75;;;11.63;55.76
33191;BME280;19554;42.652;23.364;2022-10-16T05:34:10;95322.84;;;11.45;55.04
33191;BME280;19554;42.652;23.364;2022-10-16T05:36:36;95408.06;;;12.22;54.08
33191;BME280;19554;42.652;23.364;2022-10-16T05:39:02;95414.38;;;12.36;52.85
33191;BME280;19554;42.652;23.364;2022-10-16T05:41:27;95412.09;;;12.53;52.32
33191;BME280;19554;42.652;23.364;2022-10-16T05:43:53;95309.75;;;11.98;52.36
33191;BME280;19554;42.652;23.364;2022-10-16T05:46:18;95311.69;;;12.22;52.03
33191;BME280;19554;42.652;23.364;2022-10-16T05:48:44;95335.53;;;12.52;51.41
33191;BME280;19554;42.652;23.364;2022-10-16T05:51:11;95417.94;;;13.19;51.32
33191;BME280;19554;42.652;23.364;2022-10-16T05:53:38;95417.88;;;13.29;51.03
33191;BME280;19554;42.652;23.364;2022-10-16T05:56:05;95394.69;;;12.85;51.61
33191;BME280;19554;42.652;23.364;2022-10-16T05:58:33;95371.28;;;12.67;51.78
33191;BME280;19554;42.652;23.364;2022-10-16T06:01:07;95425.69;;;13.25;51.46
33191;BME280;19554;42.652;23.364;2022-10-16T06:03:33;95348.97;;;12.47;52.35
33191;BME280;19554;42.652;23.364;2022-10-16T06:05:59;95422.06;;;12.82;53.49
33191;BME280;19554;42.652;23.364;2022-10-16T06:08:24;95422.38;;;13.04;53.48
33191;BME280;19554;42.652;23.364;2022-10-16T06:11:01;95441.00;;;13.20;53.65
33191;BME280;19554;42.652;23.364;2022-10-16T06:13:27;95449.03;;;13.25;53.73
33191;BME280;19554;42.652;23.364;2022-10-16T06:15:52;95399.81;;;13.11;53.18
33191;BME280;19554;42.652;23.364;2022-10-16T06:18:17;95458.41;;;13.22;54.00
33191;BME280;19554;42.652;23.364;2022-10-16T06:20:43;95428.69;;;13.19;53.96
33191;BME280;19554;42.652;23.364;2022-10-16T06:23:08;95420.78;;;13.03;54.32
33191;BME280;19554;42.652;23.364;2022-10-16T06:25:33;95405.97;;;13.11;54.12
33191;BME280;19554;42.652;23.364;2022-10-16T06:27:59;95458.41;;;13.51;54.00
33191;BME280;19554;42.652;23.364;2022-10-16T06:30:24;95408.84;;;13.20;54.19
33191;BME280;19554;42.652;23.364;2022-10-16T06:32:50;95383.69;;;13.40;52.68
33191;BME280;19554;42.652;23.364;2022-10-16T06:35:15;95421.31;;;13.59;52.63
33191;BME280;19554;42.652;23.364;2022-10-16T06:37:40;95464.63;;;13.95;52.34
33191;BME280;19554;42.652;23.364;2022-10-16T06:40:06;95469.94;;;13.76;53.20
33191;BME280;19554;42.652;23.364;2022-10-16T06:42:32;95466.47;;;13.75;53.49
33191;BME280;19554;42.652;23.364;2022-10-16T06:44:57;95433.47;;;13.22;54.22
33191;BME280;19554;42.652;23.364;2022-10-16T06:47:23;95473.25;;;13.68;53.55
33191;BME280;19554;42.652;23.364;2022-10-16T06:49:48;95409.69;;;13.44;52.98
33191;BME280;19554;42.652;23.364;2022-10-16T06:52:14;95467.25;;;13.76;53.35
33191;BME280;19554;42.652;23.364;2022-10-16T06:54:39;95468.91;;;13.72;52.67
33191;BME280;19554;42.652;23.364;2022-10-16T06:57:04;95454.53;;;13.04;54.05
33191;BME280;19554;42.652;23.364;2022-10-16T06:59:30;95503.22;;;13.51;53.88
33191;BME280;19554;42.652;23.364;2022-10-16T07:01:55;95325.13;;;12.75;53.36
33191;BME280;19554;42.652;23.364;2022-10-16T07:04:20;95499.03;;;14.12;52.69
33191;BME280;19554;42.652;23.364;2022-10-16T07:06:46;95483.69;;;14.36;52.74
33191;BME280;19554;42.652;23.364;2022-10-16T07:09:11;95443.88;;;14.01;52.17
33191;BME280;19554;42.652;23.364;2022-10-16T07:11:39;95480.22;;;14.55;52.03
33191;BME280;19554;42.652;23.364;2022-10-16T07:14:05;95493.72;;;14.87;51.06
33191;BME280;19554;42.652;23.364;2022-10-16T07:16:34;95494.00;;;15.05;50.96
33191;BME280;19554;42.652;23.364;2022-10-16T07:19:01;95465.59;;;14.99;50.46
33191;BME280;19554;42.652;23.364;2022-10-16T07:21:29;95488.44;;;15.15;50.05
33191;BME280;19554;42.652;23.364;2022-10-16T07:23:58;95497.13;;;15.26;50.45
33191;BME280;19554;42.652;23.364;2022-10-16T07:26:25;95427.19;;;14.79;50.79
33191;BME280;19554;42.652;23.364;2022-10-16T07:28:51;95490.19;;;15.06;50.96
33191;BME280;19554;42.652;23.364;2022-10-16T07:31:19;95503.16;;;15.17;50.96
33191;BME280;19554;42.652;23.364;2022-10-16T07:33:45;95456.97;;;15.15;50.47
33191;BME280;19554;42.652;23.364;2022-10-16T07:36:13;95500.84;;;15.44;50.02
33191;BME280;19554;42.652;23.364;2022-10-16T07:38:38;95507.59;;;15.27;50.25
33191;BME280;19554;42.652;23.364;2022-10-16T07:41:06;95508.75;;;15.21;50.45
33191;BME280;19554;42.652;23.364;2022-10-16T07:43:32;95451.72;;;14.91;50.61
33191;BME280;19554;42.652;23.364;2022-10-16T07:45:58;95505.22;;;15.07;50.62
33191;BME280;19554;42.652;23.364;2022-10-16T07:48:26;95414.16;;;14.54;50.89
33191;BME280;19554;42.652;23.364;2022-10-16T07:50:51;95474.75;;;14.98;50.33
33191;BME280;19554;42.652;23.364;2022-10-16T07:53:17;95502.78;;;15.24;50.71
33191;BME280;19554;42.652;23.364;2022-10-16T07:55:42;95507.41;;;15.37;50.44
33191;BME280;19554;42.652;23.364;2022-10-16T07:58:08;95489.91;;;15.54;49.73
33191;BME280;19554;42.652;23.364;2022-10-16T08:00:36;95490.38;;;15.88;48.38
33191;BME280;19554;42.652;23.364;2022-10-16T08:03:01;95497.56;;;16.07;48.04
33191;BME280;19554;42.652;23.364;2022-10-16T08:05:32;95509.88;;;16.35;47.81
33191;BME280;19554;42.652;23.364;2022-10-16T08:07:58;95500.72;;;16.09;47.86
33191;BME280;19554;42.652;23.364;2022-10-16T08:10:26;95462.84;;;15.92;47.93
33191;BME280;19554;42.652;23.364;2022-10-16T08:12:52;95513.56;;;16.40;47.67
33191;BME280;19554;42.652;23.364;2022-10-16T08:15:18;95490.53;;;16.33;47.05
33191;BME280;19554;42.652;23.364;2022-10-16T08:17:44;95503.25;;;16.69;47.08
33191;BME280;19554;42.652;23.364;2022-10-16T08:20:10;95510.00;;;16.80;46.99
33191;BME280;19554;42.652;23.364;2022-10-16T08:22:36;95506.94;;;16.59;46.34
33191;BME280;19554;42.652;23.364;2022-10-16T08:25:02;95491.66;;;16.69;46.18
33191;BME280;19554;42.652;23.364;2022-10-16T08:27:33;95502.28;;;16.51;46.58
33191;BME280;19554;42.652;23.364;2022-10-16T08:29:59;95462.44;;;16.12;46.58
33191;BME280;19554;42.652;23.364;2022-10-16T08:32:24;95485.97;;;15.93;46.73
33191;BME280;19554;42.652;23.364;2022-10-16T08:34:49;95501.91;;;16.03;47.10
33191;BME280;19554;42.652;23.364;2022-10-16T08:37:15;95501.72;;;16.27;47.15
33191;BME280;19554;42.652;23.364;2022-10-16T08:39:40;95385.31;;;15.66;46.07
33191;BME280;19554;42.652;23.364;2022-10-16T08:47:49;95503.84;;;16.66;45.88
33191;BME280;19554;42.652;23.364;2022-10-16T08:50:23;95452.16;;;16.50;44.56
33191;BME280;19554;42.652;23.364;2022-10-16T08:52:50;95506.75;;;17.06;43.63
33191;BME280;19554;42.652;23.364;2022-10-16T08:55:41;95507.84;;;17.27;43.89
33191;BME280;19554;42.652;23.364;2022-10-16T08:58:18;95436.22;;;16.99;41.44
33191;BME280;19554;42.652;23.364;2022-10-16T09:00:47;95493.59;;;17.36;39.90
33191;BME280;19554;42.652;23.364;2022-10-16T09:08:44;95481.72;;;17.14;41.41
33191;BME280;19554;42.652;23.364;2022-10-16T09:17:27;95508.44;;;17.24;39.13
33191;BME280;19554;42.652;23.364;2022-10-16T09:20:30;95506.34;;;17.21;39.05
33191;BME280;19554;42.652;23.364;2022-10-16T09:23:12;95508.25;;;17.21;39.56
33191;BME280;19554;42.652;23.364;2022-10-16T09:25:42;95510.38;;;16.88;40.12
33191;BME280;19554;42.652;23.364;2022-10-16T09:28:09;95507.81;;;16.83;40.78
33191;BME280;19554;42.652;23.364;2022-10-16T09:30:35;95476.28;;;16.69;40.51
33191;BME280;19554;42.652;23.364;2022-10-16T09:33:02;95498.63;;;16.84;40.23
33191;BME280;19554;42.652;23.364;2022-10-16T09:35:42;95506.22;;;16.81;41.09
33191;BME280;19554;42.652;23.364;2022-10-16T09:38:08;95485.44;;;16.68;40.96
33191;BME280;19554;42.652;23.364;2022-10-16T09:40:38;95489.28;;;16.53;40.84
33191;BME280;19554;42.652;23.364;2022-10-16T09:46:21;95497.56;;;16.07;42.14
33191;BME280;19554;42.652;23.364;2022-10-16T09:48:51;95486.16;;;16.10;41.29
33191;BME280;19554;42.652;23.364;2022-10-16T09:53:47;95478.00;;;16.15;40.78
33191;BME280;19554;42.652;23.364;2022-10-16T09:56:22;95495.50;;;16.40;40.47
33191;BME280;19554;42.652;23.364;2022-10-16T09:58:54;95484.09;;;16.57;39.66
33191;BME280;19554;42.652;23.364;2022-10-16T10:01:20;95490.22;;;16.71;39.42
33191;BME280;19554;42.652;23.364;2022-10-16T10:03:48;95434.22;;;16.46;39.23
33191;BME280;19554;42.652;23.364;2022-10-16T10:06:26;95482.28;;;16.66;39.73
33191;BME280;19554;42.652;23.364;2022-10-16T10:08:58;95425.72;;;16.16;40.08
33191;BME280;19554;42.652;23.364;2022-10-16T10:16:45;95476.44;;;16.87;39.86
33191;BME280;19554;42.652;23.364;2022-10-16T10:19:20;95472.25;;;16.80;39.74
33191;BME280;19554;42.652;23.364;2022-10-16T10:21:46;95473.06;;;16.81;39.76
33191;BME280;19554;42.652;23.364;2022-10-16T10:24:14;95468.66;;;16.85;38.38
33191;BME280;19554;42.652;23.364;2022-10-16T10:27:15;95473.56;;;16.83;39.05
33191;BME280;19554;42.652;23.364;2022-10-16T10:32:17;95473.13;;;16.53;38.83
33191;BME280;19554;42.652;23.364;2022-10-16T10:42:44;95439.84;;;16.35;39.79
33191;BME280;19554;42.652;23.364;2022-10-16T10:45:38;95454.53;;;16.66;40.12
33191;BME280;19554;42.652;23.364;2022-10-16T10:50:42;95445.41;;;16.98;39.12
33191;BME280;19554;42.652;23.364;2022-10-16T10:55:40;95366.59;;;16.33;36.04
33191;BME280;19554;42.652;23.364;2022-10-16T10:58:35;95447.09;;;16.71;37.00
33191;BME280;19554;42.652;23.364;2022-10-16T11:01:12;95443.31;;;16.72;36.97
33191;BME280;19554;42.652;23.364;2022-10-16T11:03:53;95428.69;;;16.87;36.30
33191;BME280;19554;42.652;23.364;2022-10-16T11:06:32;95430.56;;;17.09;35.67
33191;BME280;19554;42.652;23.364;2022-10-16T11:09:08;95429.97;;;17.12;35.29
33191;BME280;19554;42.652;23.364;2022-10-16T11:11:52;95423.84;;;17.20;34.42
33191;BME280;19554;42.652;23.364;2022-10-16T11:14:24;95424.91;;;17.19;33.85
33191;BME280;19554;42.652;23.364;2022-10-16T11:16:56;95426.44;;;16.80;32.99
33191;BME280;19554;42.652;23.364;2022-10-16T11:19:44;95423.13;;;16.84;33.57
33191;BME280;19554;42.652;23.364;2022-10-16T11:22:18;95420.69;;;16.96;33.79
33191;BME280;19554;42.652;23.364;2022-10-16T11:25:18;95420.50;;;16.92;34.20
33191;BME280;19554;42.652;23.364;2022-10-16T11:27:51;95427.03;;;17.00;34.61
33191;BME280;19554;42.652;23.364;2022-10-16T11:30:21;95419.16;;;17.12;34.57
33191;BME280;19554;42.652;23.364;2022-10-16T11:33:12;95413.50;;;17.22;33.86
33191;BME280;19554;42.652;23.364;2022-10-16T11:35:59;95413.84;;;17.21;35.17
33191;BME280;19554;42.652;23.364;2022-10-16T11:38:30;95415.75;;;17.20;34.85
33191;BME280;19554;42.652;23.364;2022-10-16T11:41:03;95347.34;;;16.71;34.60
33191;BME280;19554;42.652;23.364;2022-10-16T11:43:37;95420.78;;;17.13;34.88
33191;BME280;19554;42.652;23.364;2022-10-16T11:46:15;95426.63;;;17.07;34.88
33191;BME280;19554;42.652;23.364;2022-10-16T11:49:00;95346.78;;;16.52;35.73
33191;BME280;19554;42.652;23.364;2022-10-16T11:56:55;95419.53;;;17.19;36.09
33191;BME280;19554;42.652;23.364;2022-10-16T11:59:42;95422.72;;;17.21;36.54
33191;BME280;19554;42.652;23.364;2022-10-16T12:08:08;95412.97;;;17.12;35.93
33191;BME280;19554;42.652;23.364;2022-10-16T12:10:36;95415.75;;;17.20;35.17
33191;BME280;19554;42.652;23.364;2022-10-16T12:13:04;95414.28;;;17.14;35.79
33191;BME280;19554;42.652;23.364;2022-10-16T12:15:32;95404.94;;;17.20;35.31
33191;BME280;19554;42.652;23.364;2022-10-16T12:17:58;95374.00;;;16.95;35.95
33191;BME280;19554;42.652;23.364;2022-10-16T12:20:30;95417.31;;;17.21;36.21
33191;BME280;19554;42.652;23.364;2022-10-16T12:23:06;95364.00;;;16.87;36.50
33191;BME280;19554;42.652;23.364;2022-10-16T12:25:39;95388.41;;;17.13;36.82
33191;BME280;19554;42.652;23.364;2022-10-16T12:28:21;95412.28;;;17.28;37.24
33191;BME280;19554;42.652;23.364;2022-10-16T12:30:55;95413.47;;;17.45;35.90
33191;BME280;19554;42.652;23.364;2022-10-16T12:33:26;95401.91;;;17.53;34.96
33191;BME280;19554;42.652;23.364;2022-10-16T12:35:52;95350.31;;;17.15;35.09
33191;BME280;19554;42.652;23.364;2022-10-16T12:38:37;95413.31;;;17.50;34.41
33191;BME280;19554;42.652;23.364;2022-10-16T12:41:05;95411.56;;;17.45;35.58
33191;BME280;19554;42.652;23.364;2022-10-16T12:43:46;95414.16;;;17.50;35.33
33191;BME280;19554;42.652;23.364;2022-10-16T12:48:39;95415.56;;;17.48;35.21
33191;BME280;19554;42.652;23.364;2022-10-16T12:51:34;95358.75;;;17.13;35.32
33191;BME280;19554;42.652;23.364;2022-10-16T12:54:19;95418.31;;;17.65;35.89
33191;BME280;19554;42.652;23.364;2022-10-16T12:59:43;95416.31;;;17.80;36.27
33191;BME280;19554;42.652;23.364;2022-10-16T13:08:57;95360.44;;;17.09;35.77
33191;BME280;19554;42.652;23.364;2022-10-16T13:25:08;95423.31;;;17.81;35.11
33191;BME280;19554;42.652;23.364;2022-10-16T13:27:51;95420.94;;;17.88;35.06
33191;BME280;19554;42.652;23.364;2022-10-16T13:30:28;95420.47;;;17.86;34.71
33191;BME280;19554;42.652;23.364;2022-10-16T13:33:45;95422.38;;;17.85;34.76
33191;BME280;19554;42.652;23.364;2022-10-16T13:35:57;95379.69;;;17.47;35.10
33191;BME280;19554;42.652;23.364;2022-10-16T13:38:25;95421.22;;;17.77;35.25
33191;BME280;19554;42.652;23.364;2022-10-16T13:41:17;95430.44;;;17.76;35.22
33191;BME280;19554;42.652;23.364;2022-10-16T13:43:49;95426.66;;;17.86;35.12
33191;BME280;19554;42.652;23.364;2022-10-16T13:46:20;95428.59;;;17.86;35.36
33191;BME280;19554;42.652;23.364;2022-10-16T13:48:57;95418.53;;;17.77;34.84
33191;BME280;19554;42.652;23.364;2022-10-16T13:51:22;95394.16;;;17.60;35.14
33191;BME280;19554;42.652;23.364;2022-10-16T13:53:52;95427.75;;;17.76;36.02
33191;BME280;19554;42.652;23.364;2022-10-16T13:56:20;95438.06;;;17.74;36.02
33191;BME280;19554;42.652;23.364;2022-10-16T13:58:57;95413.59;;;17.71;35.52
33191;BME280;19554;42.652;23.364;2022-10-16T14:01:24;95414.84;;;17.73;35.29
33191;BME280;19554;42.652;23.364;2022-10-16T14:03:51;95396.41;;;17.67;34.99
33191;BME280;19554;42.652;23.364;2022-10-16T14:06:19;95409.81;;;17.81;34.98
33191;BME280;19554;42.652;23.364;2022-10-16T14:11:25;95433.50;;;17.84;35.71
33191;BME280;19554;42.652;23.364;2022-10-16T14:13:51;95393.16;;;17.47;35.19
33191;BME280;19554;42.652;23.364;2022-10-16T14:16:20;95426.41;;;17.65;36.04
33191;BME280;19554;42.652;23.364;2022-10-16T14:18:56;95454.91;;;17.49;35.83
33191;BME280;19554;42.652;23.364;2022-10-16T14:21:23;95432.28;;;17.27;36.13
33191;BME280;19554;42.652;23.364;2022-10-16T14:23:49;95446.06;;;17.26;35.60
33191;BME280;19554;42.652;23.364;2022-10-16T14:26:17;95439.25;;;16.97;35.39
33191;BME280;19554;42.652;23.364;2022-10-16T14:28:44;95458.81;;;17.03;35.71
33191;BME280;19554;42.652;23.364;2022-10-16T14:31:36;95457.97;;;17.02;36.01
33191;BME280;19554;42.652;23.364;2022-10-16T14:34:02;95456.09;;;17.03;35.92
33191;BME280;19554;42.652;23.364;2022-10-16T14:36:29;95435.63;;;16.79;35.53